• Join FlightAware (Why Join?)
  • Login
  • US Flag 
12:12AM EDT


 

Airport Tracker/Info


-or-


 

Live Flight TrackerFlight Track Log ✈ AVN10 ✈ 22-Sep-2013 ✈ NVVV / VLI - YSSY / SYD

Flight Track Log - Related Links

Times and Time Zones

All times are in EDT time to prevent confusion due to time zone crossing. See the AVN10 flight status page for this flight to view local times or setup timezone preferences in your user account.

Time Position Orientation Groundspeed Altitude Reporting Facility
EDT Latitude Longitude Course Direction KTS MPH feet Rate Location/Type
04:12PM -18.3180 167.7715 204° Southwest  Level Estimated
04:13PM -18.4256 167.7271 201° Southwest  Level FlightAware Approximate
04:14PM -18.5332 167.6826 201° Southwest  Level FlightAware Approximate
04:15PM -18.6408 167.6380 201° Southwest  Level FlightAware Approximate
04:16PM -18.7484 167.5934 201° Southwest  Level FlightAware Approximate
04:17PM -18.8560 167.5487 201° Southwest  Level FlightAware Approximate
04:18PM -18.9636 167.5040 201° Southwest  Level FlightAware Approximate
04:19PM -19.0711 167.4592 201° Southwest  Level FlightAware Approximate
04:20PM -19.1786 167.4144 201° Southwest  Level FlightAware Approximate
04:21PM -19.2862 167.3695 202° Southwest  Level FlightAware Approximate
04:22PM -19.3937 167.3245 202° Southwest  Level FlightAware Approximate
04:23PM -19.5012 167.2795 202° Southwest  Level FlightAware Approximate
04:24PM -19.6087 167.2344 202° Southwest  Level FlightAware Approximate
04:25PM -19.7162 167.1893 202° Southwest  Level FlightAware Approximate
04:26PM -19.8237 167.1441 202° Southwest  Level FlightAware Approximate
04:27PM -19.9312 167.0988 202° Southwest  Level FlightAware Approximate
04:28PM -20.0386 167.0535 202° Southwest  Level FlightAware Approximate
04:29PM -20.1460 167.0081 202° Southwest  Level FlightAware Approximate
04:30PM -20.2535 166.9627 202° Southwest  Level FlightAware Approximate
04:31PM -20.3609 166.9172 202° Southwest  Level FlightAware Approximate
04:32PM -20.4683 166.8716 202° Southwest  Level FlightAware Approximate
04:33PM -20.5757 166.8260 202° Southwest  Level FlightAware Approximate
04:33PM -20.4610 166.9450 224° Southwest 432 497 36,000  Level FlightAware
04:34PM -20.6606 166.7421 224° Southwest  Level Estimated
04:34PM -20.5320 166.9120 204° Southwest 432 497 36,000  Level FlightAware
04:34PM -20.5910 166.8840 204° Southwest 432 497 36,000  Level FlightAware
04:35PM -20.6570 166.8530 204° Southwest 434 499 36,000  Level FlightAware
04:36PM -20.7230 166.8220 204° Southwest 436 502 36,000  Level FlightAware
04:36PM -20.7840 166.7930 204° Southwest 437 503 36,000  Level FlightAware
04:37PM -20.8500 166.7620 204° Southwest 438 504 36,000  Level FlightAware
04:37PM -20.9210 166.7290 203° Southwest 438 504 36,000  Level FlightAware
04:38PM -20.9800 166.7000 205° Southwest 440 506 36,000  Level FlightAware
04:38PM -21.0450 166.6700 203° Southwest 440 506 36,000  Level FlightAware
04:39PM -21.1140 166.6370 204° Southwest 441 507 36,000  Level FlightAware
04:40PM -21.1740 166.6080 204° Southwest 441 507 36,000  Level FlightAware
04:40PM -21.2470 166.5740 203° Southwest 439 505 36,000  Level FlightAware
04:41PM -21.3010 166.5480 204° Southwest 437 503 36,000  Level FlightAware
04:41PM -21.3700 166.5150 204° Southwest 435 501 36,000  Level FlightAware
04:42PM -21.4380 166.4830 204° Southwest 434 499 36,000  Level FlightAware
04:43PM -21.5040 166.4520 204° Southwest 434 499 36,000  Level FlightAware
04:43PM -21.5630 166.4240 204° Southwest 433 498 36,000  Level FlightAware
04:44PM -21.6290 166.3920 204° Southwest 434 499 36,000  Level FlightAware
04:44PM -21.6950 166.3600 204° Southwest 435 501 36,000  Level FlightAware
04:45PM -21.7620 166.3280 204° Southwest 436 502 36,000  Level FlightAware
04:45PM -21.8240 166.2990 203° Southwest 439 505 36,000  Level FlightAware
04:46PM -21.8930 166.2660 204° Southwest 440 506 36,000  Level FlightAware
04:47PM -21.9600 166.2340 204° Southwest 441 507 36,000  Level FlightAware
04:47PM -22.0140 166.1990 211° Southwest 425 489 36,000  Level FlightAware
04:48PM -22.0660 166.1480 222° Southwest 415 478 36,000  Level FlightAware
04:48PM -22.1160 166.0960 224° Southwest 417 480 36,000  Level FlightAware
04:49PM -22.1650 166.0440 224° Southwest 417 480 36,000  Level FlightAware
04:49PM -22.2100 165.9970 224° Southwest 417 480 36,000  Level FlightAware
04:50PM -22.2600 165.9450 224° Southwest 416 479 36,000  Level FlightAware
04:51PM -22.3080 165.8950 224° Southwest 414 476 36,000  Level FlightAware
04:51PM -22.3530 165.8470 225° Southwest 414 476 36,000  Level FlightAware
04:52PM -22.4050 165.7930 224° Southwest 414 476 36,000  Level FlightAware
04:52PM -22.4540 165.7410 224° Southwest 412 474 36,000  Level FlightAware
04:53PM -22.4980 165.6940 225° Southwest 410 472 36,000  Level FlightAware
04:54PM -22.5480 165.6420 224° Southwest 408 470 36,000  Level FlightAware
04:54PM -22.5960 165.5910 224° Southwest 406 467 36,000  Level FlightAware
04:55PM -22.6390 165.5460 224° Southwest 405 466 36,000  Level FlightAware
04:55PM -22.6890 165.4920 225° Southwest 405 466 36,000  Level FlightAware
04:56PM -22.7320 165.4460 225° Southwest 404 465 36,000  Level FlightAware
04:56PM -22.7800 165.3960 224° Southwest 404 465 36,000  Level FlightAware
04:57PM -22.8290 165.3440 224° Southwest 407 468 36,000  Level FlightAware
04:58PM -22.8740 165.2960 224° Southwest 408 470 36,000  Level FlightAware
04:58PM -22.9210 165.2460 224° Southwest 408 470 36,000  Level FlightAware
04:59PM -22.9640 165.2000 225° Southwest 408 470 36,000  Level FlightAware
04:59PM -23.0170 165.1440 224° Southwest 409 471 36,000  Level FlightAware
05:00PM -23.0660 165.0920 224° Southwest 408 470 36,000  Level FlightAware
05:01PM -23.1100 165.0440 225° Southwest 408 470 36,000  Level FlightAware
05:01PM -23.1600 164.9910 224° Southwest 410 472 36,000  Level FlightAware
05:02PM -23.2090 164.9380 225° Southwest 410 472 36,000  Level FlightAware
05:02PM -23.2520 164.8920 225° Southwest 410 472 36,000  Level FlightAware
05:03PM -23.3150 164.8250 224° Southwest 409 471 36,000  Level FlightAware
05:04PM -23.3570 164.7810 224° Southwest 409 471 36,000  Level FlightAware
05:04PM -23.3990 164.7370 224° Southwest 409 471 36,000  Level FlightAware
05:05PM -23.4400 164.6930 225° Southwest 409 471 36,000  Level FlightAware
05:06PM -23.4820 164.6490 224° Southwest 409 471 36,000  Level FlightAware
05:06PM -23.5240 164.6050 224° Southwest 409 471 36,000  Level FlightAware
05:07PM -23.5650 164.5610 225° Southwest 409 471 36,000  Level FlightAware
05:07PM -23.6070 164.5180 223° Southwest 409 471 36,000  Level FlightAware
05:08PM -23.6490 164.4740 224° Southwest 409 471 36,000  Level FlightAware
05:09PM -23.6910 164.4290 224° Southwest 409 471 36,000  Level FlightAware
05:09PM -23.7450 164.3720 224° Southwest 409 471 36,000  Level FlightAware
05:10PM -23.7870 164.3270 224° Southwest 409 471 36,000  Level FlightAware
05:11PM -23.8420 164.2700 223° Southwest 409 471 36,000  Level FlightAware
05:11PM -23.8850 164.2250 224° Southwest 409 471 36,000  Level FlightAware
05:12PM -23.9260 164.1810 224° Southwest 409 471 36,000  Level FlightAware
05:13PM -23.9680 164.1370 224° Southwest 409 471 36,000  Level FlightAware
05:15PM -24.1248 163.9626 225° Southwest  Level FlightAware Approximate
05:16PM -24.2058 163.8723 225° Southwest  Level FlightAware Approximate
05:17PM -24.2868 163.7818 226° Southwest  Level FlightAware Approximate
05:18PM -24.3677 163.6912 226° Southwest  Level FlightAware Approximate
05:19PM -24.4485 163.6005 226° Southwest  Level FlightAware Approximate
05:20PM -24.5293 163.5097 226° Southwest  Level FlightAware Approximate
05:20PM -24.7759 163.2257 224° Southwest 38,000  Level Aus ATC (Calculated)
05:20PM -24.7759 163.2257 224° Southwest 38,000  Level Aus ATC (Calculated)
05:22PM -24.9187 163.0678 225° Southwest  Level FlightAware Approximate
05:23PM -24.9959 162.9822 225° Southwest  Level FlightAware Approximate
05:23PM -25.0517 162.9175 224° Southwest 38,000  Level Aus ATC (Calculated)
05:25PM -24.9051 163.0856 46° Northeast  Level FlightAware Approximate
05:25PM -25.2547 162.6894 224° Southwest 38,000  Level Aus ATC (Calculated)
05:26PM -25.1783 162.7759 46° Northeast  Level FlightAware Approximate
05:27PM -25.2539 162.6886 225° Southwest  Level Estimated
05:28PM -25.3305 162.6022 226° Southwest  Level FlightAware Approximate
05:28PM -25.5396 162.3673 224° Southwest 38,000  Level Aus ATC (Calculated)
05:29PM -25.6160 162.2805 226° Southwest  Level FlightAware Approximate
05:29PM -25.7114 162.1719 224° Southwest 38,000  Level Aus ATC (Calculated)
05:30PM -25.6923 162.1936 226° Southwest  Level FlightAware Approximate
05:31PM -25.8037 162.0665 226° Southwest  Level FlightAware Approximate
05:32PM -25.8796 161.9798 226° Southwest  Level FlightAware Approximate
05:33PM -25.9554 161.8929 226° Southwest  Level FlightAware Approximate
05:34PM -26.0311 161.8059 226° Southwest  Level FlightAware Approximate
05:35PM -26.1068 161.7189 226° Southwest  Level FlightAware Approximate
05:36PM -26.1824 161.6317 226° Southwest  Level FlightAware Approximate
05:37PM -26.2580 161.5443 226° Southwest  Level FlightAware Approximate
05:38PM -26.3336 161.4569 226° Southwest  Level FlightAware Approximate
05:39PM -26.4091 161.3694 226° Southwest  Level FlightAware Approximate
05:40PM -26.4845 161.2817 226° Southwest  Level FlightAware Approximate
05:41PM -26.5599 161.1940 226° Southwest  Level FlightAware Approximate
05:42PM -26.6352 161.1061 226° Southwest  Level FlightAware Approximate
05:43PM -26.7105 161.0181 226° Southwest  Level FlightAware Approximate
05:44PM -26.7857 160.9300 226° Southwest  Level FlightAware Approximate
05:45PM -26.8608 160.8417 226° Southwest  Level FlightAware Approximate
05:46PM -26.9359 160.7534 226° Southwest  Level FlightAware Approximate
05:47PM -27.0110 160.6649 226° Southwest  Level FlightAware Approximate
05:47PM -27.4270 160.1711 223° Southwest 38,000  Level Aus ATC (Calculated)
05:49PM -27.5415 160.0342 227° Southwest  Level FlightAware Approximate
05:49PM -27.6345 159.9227 223° Southwest 38,000  Level Aus ATC (Calculated)
05:51PM -27.7488 159.7853 227° Southwest  Level FlightAware Approximate
05:51PM -27.8286 159.6890 223° Southwest 38,000  Level Aus ATC (Calculated)
05:53PM -27.9426 159.5511 227° Southwest  Level FlightAware Approximate
05:54PM -28.0169 159.4610 227° Southwest  Level FlightAware Approximate
05:55PM -28.0912 159.3707 227° Southwest  Level FlightAware Approximate
05:55PM -28.2011 159.2367 221° Southwest 38,000  Level Aus ATC (Calculated)
05:57PM -28.3233 159.0872 227° Southwest  Level FlightAware Approximate
05:58PM -28.2493 159.1779 47° Northeast  Level FlightAware Approximate
05:59PM -28.3233 159.0872 227° Southwest  Level FlightAware Approximate
06:00PM -28.2493 159.1779 47° Northeast  Level FlightAware Approximate
06:00PM -28.6210 158.7204 218° Southwest 38,000  Level Aus ATC (Calculated)
06:01PM -28.7430 158.5693 216° Southwest 38,000  Level Aus ATC (Calculated)
06:03PM -28.6333 158.7053 47° Northeast  Level FlightAware Approximate
06:04PM -28.5557 158.8011 47° Northeast  Level FlightAware Approximate
06:05PM -28.4782 158.8968 47° Northeast  Level FlightAware Approximate
06:06PM -28.4005 158.9924 47° Northeast  Level FlightAware Approximate
06:07PM -28.3228 159.0878 47° Northeast  Level FlightAware Approximate
06:08PM -28.2450 159.1831 47° Northeast  Level FlightAware Approximate
06:09PM -28.3228 159.0878 227° Southwest  Level FlightAware Approximate
06:10PM -28.2450 159.1831 47° Northeast  Level FlightAware Approximate
06:11PM -28.3228 159.0878 227° Southwest  Level FlightAware Approximate
06:11PM -29.5514 157.5526 69° East 38,000  Level Aus ATC (Calculated)
06:13PM -29.6644 157.4012 227° Southwest  Level Estimated
06:14PM -29.7411 157.3034 228° Southwest  Level FlightAware Approximate
06:15PM -29.8178 157.2056 228° Southwest  Level FlightAware Approximate
06:16PM -29.8944 157.1076 228° Southwest  Level FlightAware Approximate
06:16PM -29.9527 157.0383 57° Northeast 38,000  Level Aus ATC (Calculated)
06:17PM -30.0727 156.8831 56° Northeast 38,000  Level Aus ATC (Calculated)
06:18PM -30.0683 156.8888 228° Southwest  Level FlightAware Approximate
06:19PM -30.1741 156.7515 228° Southwest  Level FlightAware Approximate
06:19PM -29.3901 158.0334 228° Southwest 467 537 38,100  Level Aus ATC (RADAR)
06:20PM -29.4579 157.9557 225° Southwest 434 499 38,100  Level Aus ATC (RADAR)
06:20PM -29.5097 157.9002 223° Southwest 437 503 38,100  Level Aus ATC (RADAR)
06:21PM -29.5673 157.8380 223° Southwest 431 496 38,100  Level Aus ATC (RADAR)
06:21PM -29.6175 157.7832 224° Southwest 429 494 38,100  Level Aus ATC (RADAR)
06:22PM -29.6672 157.7289 223° Southwest 426 490 38,100  Level Aus ATC (RADAR)
06:23PM -29.7107 157.6819 223° Southwest 427 491 38,100  Level Aus ATC (RADAR)
06:23PM -29.7548 157.6347 223° Southwest 429 494 38,100  Level Aus ATC (RADAR)
06:24PM -29.8464 157.5335 224° Southwest 423 487 38,100  Level Aus ATC (RADAR)
06:25PM -29.8816 157.4948 224° Southwest 422 486 38,100  Level Aus ATC (RADAR)
06:25PM -29.9242 157.4480 224° Southwest 422 486 38,100  Level Aus ATC (RADAR)
06:26PM -29.9829 157.3841 223° Southwest 427 491 38,100  Level Aus ATC (RADAR)
06:26PM -30.0312 157.3300 224° Southwest 424 488 38,100  Level Aus ATC (RADAR)
06:27PM -30.0731 157.2831 224° Southwest 421 484 38,100  Level Aus ATC (RADAR)
06:27PM -30.1317 157.2188 223° Southwest 428 493 38,100  Level Aus ATC (RADAR)
06:28PM -30.1821 157.1631 224° Southwest 430 495 38,100 -120 Level Aus ATC (RADAR)
06:29PM -30.2659 157.0695 224° Southwest 425 489 38,000 -120 Descending Aus ATC (RADAR)
06:29PM -30.2951 157.0372 224° Southwest 430 495 38,000 120 Level Aus ATC (RADAR)
06:30PM -30.3307 156.9973 224° Southwest 429 494 38,100 60 Climbing Aus ATC (RADAR)
06:30PM -30.3739 156.9491 224° Southwest 430 495 38,100 -120 Level Aus ATC (RADAR)
06:31PM -30.4245 156.8925 224° Southwest 432 497 38,000  Descending Aus ATC (RADAR)
06:31PM -30.4679 156.8441 224° Southwest 432 497 38,100  Climbing Aus ATC (RADAR)
06:31PM -30.4570 156.8560 224° Southwest 430 495 38,000  Descending FlightAware
06:32PM -30.5185 156.7876 224° Southwest 433 498 38,100  Climbing Aus ATC (RADAR)
06:32PM -30.5190 156.7870 224° Southwest 432 497 38,000 -180 Descending FlightAware
06:33PM -30.5680 156.7320 224° Southwest 432 497 38,000  Level FlightAware
06:33PM -30.5770 156.7221 224° Southwest 436 502 38,000  Level Aus ATC (RADAR)
06:33PM -30.6120 156.6830 224° Southwest 432 497 38,000  Level FlightAware
06:34PM -30.6560 156.6330 224° Southwest 432 497 38,000  Level FlightAware
06:34PM -30.7000 156.5840 224° Southwest 432 497 38,000 60 Level FlightAware
06:35PM -30.7815 156.4925 224° Southwest 439 505 38,100  Climbing Aus ATC (RADAR)
06:35PM -30.7440 156.5340 224° Southwest 432 497 38,000 -180 Descending FlightAware
06:36PM -30.8323 156.4354 224° Southwest 437 503 38,000  Level Aus ATC (RADAR)
06:36PM -30.8490 156.4150 224° Southwest 432 497 38,000  Level FlightAware
06:36PM -30.8930 156.3640 225° Southwest 432 497 38,000  Level FlightAware
06:37PM -30.9360 156.3140 225° Southwest 432 497 38,000  Level FlightAware
06:38PM -30.9790 156.2640 225° Southwest 432 497 38,000  Level FlightAware
06:38PM -31.0220 156.2130 225° Southwest 432 497 38,000  Level FlightAware
06:39PM -31.0670 156.1610 225° Southwest 432 497 38,000 60 Level FlightAware
06:39PM -31.1704 156.0513 225° Southwest 434 499 38,100  Climbing Aus ATC (RADAR)
06:39PM -31.1100 156.1110 225° Southwest 432 497 38,000  Descending FlightAware
06:40PM -31.2209 155.9935 225° Southwest 436 502 38,100  Climbing Aus ATC (RADAR)
06:40PM -31.1530 156.0600 225° Southwest 432 497 38,000 -180 Descending FlightAware
06:41PM -31.1970 156.0100 224° Southwest 432 497 38,000 60 Level FlightAware
06:41PM -31.3225 155.8776 224° Southwest 438 504 38,100  Climbing Aus ATC (RADAR)
06:41PM -31.2400 155.9590 224° Southwest 432 497 38,000 -180 Descending FlightAware
06:42PM -31.3734 155.8194 224° Southwest 439 505 38,000  Level Aus ATC (RADAR)
06:42PM -31.2830 155.9080 224° Southwest 432 497 38,000  Level FlightAware
06:42PM -31.4239 155.7614 224° Southwest 438 504 38,000  Level Aus ATC (RADAR)
06:42PM -31.3280 155.8560 224° Southwest 432 497 38,000 120 Level FlightAware
06:43PM -31.4813 155.6946 224° Southwest 438 504 38,100  Climbing Aus ATC (RADAR)
06:43PM -31.3710 155.8060 224° Southwest 432 497 38,000 -180 Descending FlightAware
06:44PM -31.4150 155.7540 225° Southwest 432 497 38,000  Level FlightAware
06:44PM -31.4580 155.7030 225° Southwest 432 497 38,000  Level FlightAware
06:45PM -31.5020 155.6520 225° Southwest 432 497 38,000 120 Level FlightAware
06:45PM -31.6472 155.5033 225° Southwest 439 505 38,100  Climbing Aus ATC (RADAR)
06:45PM -31.6870 155.4570 222° Southwest 436 502 38,000 -120 Descending FlightAware
06:46PM -31.7360 155.4010 224° Southwest 435 501 38,000 60 Level FlightAware
06:47PM -31.7899 155.3375 224° Southwest 433 498 38,100  Climbing Aus ATC (RADAR)
06:47PM -31.7960 155.3310 224° Southwest 435 501 38,000 -180 Descending FlightAware
06:47PM -31.8420 155.2790 224° Southwest 435 501 38,000  Level FlightAware
06:48PM -31.9050 155.2030 226° Southwest 434 499 38,000  Level FlightAware
06:49PM -31.9620 155.1370 224° Southwest 432 497 38,000  Level FlightAware
06:49PM -32.0020 155.0910 224° Southwest 432 497 38,000  Level FlightAware
06:50PM -32.0490 155.0370 224° Southwest 432 497 38,000 60 Level FlightAware
06:50PM -32.1092 154.9640 224° Southwest 431 496 38,100  Climbing Aus ATC (RADAR)
06:50PM -32.0930 154.9860 224° Southwest 432 497 38,000 -180 Descending FlightAware
06:51PM -32.1610 154.9030 226° Southwest 432 497 38,000  Level FlightAware
06:52PM -32.2040 154.8520 226° Southwest 431 496 38,000 120 Level FlightAware
06:52PM -32.2145 154.8395 226° Southwest 430 495 38,100  Climbing Aus ATC (RADAR)
06:52PM -32.2470 154.8020 225° Southwest 432 497 38,000 -120 Descending FlightAware
06:53PM -32.3050 154.7340 225° Southwest 430 495 38,000  Level FlightAware
06:53PM -32.3530 154.6760 226° Southwest 429 494 38,000  Level FlightAware
06:54PM -32.4160 154.6020 225° Southwest 429 494 38,000  Level FlightAware
06:55PM -32.4590 154.5510 225° Southwest 427 491 38,000  Level FlightAware
06:55PM -32.5070 154.4930 226° Southwest 413 475 38,000  Level FlightAware
06:56PM -32.5542 154.4364 226° Southwest 410 472 38,000  Level Aus ATC (RADAR)
06:56PM -32.5550 154.4370 226° Southwest 411 473 38,000  Level FlightAware
06:56PM -32.6040 154.3780 225° Southwest 409 471 38,000  Level FlightAware
06:57PM -32.6475 154.3250 225° Southwest 409 471 38,000  Level Aus ATC (RADAR)
06:57PM -32.6500 154.3230 225° Southwest 409 471 38,000 120 Level FlightAware
06:57PM -32.6939 154.2692 225° Southwest 408 470 38,100  Climbing Aus ATC (RADAR)
06:58PM -32.6990 154.2640 225° Southwest 408 470 38,000 -180 Descending FlightAware
06:58PM -32.7400 154.2140 226° Southwest 408 470 38,000 60 Level FlightAware
06:59PM -32.7932 154.1508 226° Southwest 404 465 38,100  Climbing Aus ATC (RADAR)
06:59PM -32.7910 154.1540 226° Southwest 407 468 38,000 -180 Descending FlightAware
06:59PM -32.8360 154.1000 225° Southwest 407 468 38,000  Level FlightAware
07:00PM -32.8770 154.0500 226° Southwest 407 468 38,000  Level FlightAware
07:00PM -32.9250 153.9920 225° Southwest 407 468 38,000  Level FlightAware
07:01PM -32.9710 153.9370 225° Southwest 408 470 38,000  Level FlightAware
07:02PM -33.0230 153.8740 225° Southwest 408 470 38,000  Level FlightAware
07:02PM -33.0690 153.8170 226° Southwest 408 470 38,000  Level FlightAware
07:03PM -33.1120 153.7650 225° Southwest 409 471 38,000  Level FlightAware
07:03PM -33.1600 153.7080 225° Southwest 408 470 38,000  Level FlightAware
07:04PM -33.2070 153.6490 226° Southwest 405 466 38,000  Level FlightAware
07:05PM -33.2500 153.5970 225° Southwest 404 465 38,000  Level FlightAware
07:05PM -33.3000 153.5360 226° Southwest 403 464 38,000  Level FlightAware
07:06PM -33.3420 153.4840 226° Southwest 401 461 38,000 60 Level FlightAware
07:06PM -33.3836 153.4330 226° Southwest 401 461 38,100  Climbing Aus ATC (RADAR)
07:06PM -33.3890 153.4270 226° Southwest 401 461 38,000  Descending FlightAware
07:07PM -33.4351 153.3697 226° Southwest 399 459 38,100  Climbing Aus ATC (RADAR)
07:07PM -33.4330 153.3720 226° Southwest 400 460 38,000 -180 Descending FlightAware
07:07PM -33.4803 153.3150 226° Southwest 390 449 38,000  Level Aus ATC (RADAR)
07:07PM -33.4810 153.3140 226° Southwest 399 459 38,000 120 Level FlightAware
07:08PM -33.5253 153.2595 226° Southwest 391 450 38,100  Climbing Aus ATC (RADAR)
07:08PM -33.5200 153.2660 226° Southwest 399 459 38,000 -180 Descending FlightAware
07:09PM -33.5680 153.2060 226° Southwest 398 458 38,000  Level FlightAware
07:09PM -33.6150 153.1490 225° Southwest 399 459 38,000 -180 Level FlightAware
07:10PM -33.6640 153.0880 226° Southwest 394 453 37,800 -1,320 Descending FlightAware
07:10PM -33.7160 153.0230 226° Southwest 391 450 36,300 -2,460 Descending FlightAware
07:11PM -33.7609 152.9673 226° Southwest 399 459 34,700 -2,700 Descending Aus ATC (RADAR)
07:11PM -33.7590 152.9700 226° Southwest 401 461 34,700 -2,760 Level FlightAware
07:12PM -33.8060 152.9120 226° Southwest 413 475 33,000 -3,000 Descending FlightAware
07:12PM -33.8490 152.8580 226° Southwest 418 481 31,400 -3,120 Descending FlightAware
07:12PM -33.8542 152.8521 226° Southwest 414 476 31,300 -2,400 Descending Aus ATC (RADAR)
07:13PM -33.8940 152.8010 226° Southwest 413 475 30,000 -2,400 Descending FlightAware
07:13PM -33.9003 152.7935 226° Southwest 412 474 29,900 -2,160 Descending Aus ATC (RADAR)
07:13PM -33.9430 152.7390 226° Southwest 406 467 28,700 -2,160 Descending FlightAware
07:14PM -33.9840 152.6890 225° Southwest 399 459 27,500 -2,280 Descending FlightAware
07:15PM -34.0320 152.6290 226° Southwest 389 448 26,100 -2,220 Descending FlightAware
07:15PM -34.0690 152.5750 230° Southwest 379 436 25,000 -1,980 Descending FlightAware
07:15PM -34.0760 152.5540 248° West 373 429 24,600 -2,160 Descending FlightAware
07:16PM -34.0780 152.5290 264° West 370 426 24,100 -2,100 Descending FlightAware
07:16PM -34.0730 152.4670 276° West 364 419 23,100 -2,100 Descending FlightAware
07:17PM -34.0650 152.3800 276° West 354 407 21,600 -2,160 Descending FlightAware
07:17PM -34.0580 152.3120 277° West 347 399 20,400 -2,040 Descending FlightAware
07:18PM -34.0510 152.2410 277° West 348 400 19,200 -1,920 Descending FlightAware
07:19PM -34.0440 152.1680 277° West 348 400 18,000 -1,920 Descending FlightAware
07:19PM -34.0370 152.0900 276° West 338 389 16,700 -1,980 Descending FlightAware
07:20PM -34.0310 152.0310 277° West 331 381 15,600 -1,980 Descending FlightAware
07:20PM -34.0250 151.9660 276° West 324 373 14,500 -1,860 Descending FlightAware
07:21PM -34.0180 151.9030 278° West 317 365 13,400 -1,860 Descending FlightAware
07:22PM -34.0120 151.8380 276° West 320 368 12,300 -1,800 Descending FlightAware
07:22PM -34.0060 151.7790 277° West 321 369 11,300 -1,860 Descending FlightAware
07:23PM -33.9990 151.7170 278° West 316 364 10,200 -1,140 Descending FlightAware
07:23PM -33.9930 151.6590 277° West 285 328 10,000 -660 Descending FlightAware
07:24PM -33.9920 151.6420 274° West 280 322 9,700 -1,440 Descending FlightAware
07:24PM -33.9870 151.5940 277° West 275 316 9,000 -1,380 Descending FlightAware
07:24PM -33.9850 151.5750 277° West 274 315 8,700 -1,020 Descending FlightAware
07:25PM -33.9810 151.5420 278° West 274 315 8,400 -900 Descending FlightAware
07:25PM -33.9790 151.5230 277° West 274 315 8,200 -840 Descending FlightAware
07:25PM -33.9760 151.4970 278° West 276 318 8,000 -840 Descending FlightAware
07:26PM -33.9720 151.4570 277° West 273 314 7,600 -1,020 Descending FlightAware
07:26PM -33.9700 151.4320 276° West 271 312 7,300 -960 Descending FlightAware
07:26PM -33.9770 151.3820 260° West 271 312 6,800 -1,020 Descending FlightAware
07:26PM -33.9820 151.3750 229° Southwest 270 311 6,700 -1,200 Descending FlightAware
07:27PM -33.9870 151.3710 214° Southwest 269 310 6,600 -1,020 Descending FlightAware
07:27PM -34.0150 151.3580 201° Southwest 262 302 6,200 -960 Descending FlightAware
07:27PM -34.0380 151.3490 198° South 254 292 5,900 -840 Descending FlightAware
07:27PM -34.0500 151.3490 180° South 253 291 5,800 -600 Descending FlightAware
07:28PM -34.0600 151.3500 175° South 250 288 5,700 -600 Descending FlightAware
07:28PM -34.0830 151.3560 168° South 237 273 5,500 -540 Descending FlightAware
07:28PM -34.1090 151.3630 167° South 227 261 5,300 -600 Descending FlightAware
07:29PM -34.1250 151.3670 168° South 222 255 5,100 -780 Descending FlightAware
07:29PM -34.1460 151.3570 202° Southwest 215 247 4,800 -840 Descending FlightAware
07:29PM -34.1490 151.3510 239° Southwest 214 246 4,700 -1,200 Descending FlightAware
07:29PM -34.1520 151.3390 253° West 209 241 4,500 -1,200 Descending FlightAware
07:30PM -34.1540 151.3220 262° West 207 238 4,200 -1,200 Descending FlightAware
07:30PM -34.1440 151.2970 296° West 200 230 3,700 -960 Descending FlightAware
07:30PM -34.1300 151.2840 322° Northwest 188 216 3,500 -840 Descending FlightAware
07:31PM -34.1120 151.2690 325° Northwest 183 211 3,100 -960 Descending FlightAware
07:31PM -34.1000 151.2570 320° Northwest 176 203 2,800 -840 Descending FlightAware
07:31PM -34.0940 151.2510 320° Northwest 172 198 2,700 -720 Descending FlightAware
07:32PM -34.0790 151.2380 324° Northwest 154 177 2,400 -900 Descending FlightAware
07:32PM -34.0710 151.2300 320° Northwest 150 173 2,100 -1,380 Descending FlightAware
07:32PM -34.0600 151.2190 320° Northwest 148 170 1,600 -1,380 Descending FlightAware
07:32PM -34.0500 151.2150 342° North 144 166 1,300 -720 Descending FlightAware
07:33PM -34.0370 151.2110 346° North 138 159 1,200 -240 Descending FlightAware
07:33PM -34.0310 151.2090 345° North 137 158 1,200 -600 Level FlightAware
07:33PM -34.0120 151.2050 350° North 139 160 800 -720 Descending FlightAware
07:34PM -34.0040 151.2020 343° North 141 162 700 -720 Descending FlightAware
07:34PM -33.9910 151.1990 349° North 141 162 400 -840 Descending FlightAware
07:34PM -33.9810 151.1960 346° North 143 165 200 -780 Descending FlightAware
07:35PM -33.9660 151.1930 351° North 135 155 -600 Descending FlightAware